Latest Weather Observations for Keith West

IDS60801

Issued at 2:32 pm CDT Thursday 2 April 2015 (issued every 30 minutes, with the page automatically refreshed every 10 minutes)

About weather observations | Map of weather stations | Latest weather observations for SA | Other Formats
Station Details ID: 025557 Name: MUNKORA Lat: -36.11 Lon: 140.33 Height: 27.0 m
Data from the previous 72 hours. | See also: Recent months for locations in South Australia
Date/Time
CDT
Temp
°C
App
Temp
°C
Dew
Point
Rel
Hum
%
Delta-T
°C
Wind Press
QNH
hPa
Press
MSL
hPa
Rain
since 9 am
mm
Dir
 
Spd
km/h
Gust
km/h
Spd
kts
Gust
kts
02/02:30pm 19.1 14.1 3.7 36 7.2 SE 19 32 10 17 1023.8 1023.8 0.0
02/02:00pm 18.5 13.1 4.7 40 6.6 SE 22 33 12 18 1024.2 1024.2 0.0
02/01:30pm 18.6 13.3 4.8 40 6.6 ESE 22 33 12 18 1024.6 1024.6 0.0
02/01:00pm 18.2 13.1 4.0 39 6.7 SE 20 30 11 16 1025.1 1025.1 0.0
02/12:30pm 17.6 11.2 3.1 38 6.7 SE 26 37 14 20 1025.4 1025.4 0.0
02/12:00pm 16.9 12.3 5.8 48 5.4 SE 19 28 10 15 1025.5 1025.5 0.0
02/11:30am 15.9 10.8 5.8 51 4.8 SE 22 39 12 21 1025.7 1025.7 0.0
02/11:00am 16.1 10.4 6.5 53 4.7 SE 26 39 14 21 1025.6 1025.6 0.0
02/10:30am 15.3 9.8 6.1 54 4.4 SE 24 33 13 18 1025.7 1025.7 0.0
02/10:00am 14.1 9.9 7.6 65 3.2 SE 19 24 10 13 1025.7 1025.7 0.0
02/09:30am 13.0 9.6 7.5 69 2.7 SE 15 20 8 11 1025.6 1025.6 0.0
02/09:00am 12.0 9.8 7.9 76 2.0 SSE 9 13 5 7 1025.4 1025.4 0.0
02/08:30am 10.5 8.4 6.6 77 1.8 SSE 7 11 4 6 1024.9 1024.9 0.0
02/08:00am 8.1 6.3 5.4 83 1.2 SSE 4 6 2 3 1024.3 1024.3 0.0
02/07:30am 7.1 4.6 4.8 85 1.0 S 7 7 4 4 1023.8 1023.8 0.0
02/07:00am 7.7 5.5 5.2 84 1.1 SSE 6 7 3 4 1023.4 1023.4 0.0
02/06:30am 8.5 5.5 6.0 84 1.1 S 11 13 6 7 1023.0 1023.0 0.0
02/06:00am 8.6 6.0 6.2 85 1.1 S 9 13 5 7 1022.6 1022.6 0.0
02/05:30am 9.1 6.6 6.7 85 1.1 S 9 13 5 7 1022.2 1022.2 0.0
02/05:00am 9.7 7.3 7.1 84 1.2 S 9 11 5 6 1021.8 1021.8 0.0
02/04:30am 10.3 8.1 7.7 84 1.2 S 9 15 5 8 1021.5 1021.5 0.0
02/04:00am 10.7 7.3 7.8 82 1.4 S 15 20 8 11 1021.1 1021.1 0.0
02/03:30am 11.1 8.7 8.5 84 1.3 S 11 15 6 8 1021.2 1021.2 0.0
02/03:00am 11.7 8.3 9.1 84 1.3 S 17 20 9 11 1021.2 1021.2 0.0
02/02:30am 12.4 9.5 9.8 84 1.3 S 15 19 8 10 1021.2 1021.2 0.0
02/02:00am 13.1 9.0 10.1 82 1.5 S 22 32 12 17 1020.9 1020.9 0.0
02/01:30am 13.7 10.1 10.7 82 1.6 S 20 28 11 15 1020.6 1020.6 0.0
02/01:00am 14.3 11.3 11.8 85 1.3 S 19 28 10 15 1020.4 1020.4 0.0
02/12:30am 14.7 11.2 12.2 85 1.4 S 22 30 12 16 1020.2 1020.2 0.0
02/12:00am 14.7 10.8 12.2 85 1.4 S 24 30 13 16 1019.9 1019.9 0.0
 
Date/Time
CDT
Temp
°C
App
Temp
°C
Dew
Point
Rel
Hum
%
Delta-T
°C
Wind Press
QNH
hPa
Press
MSL
hPa
Rain
since 9 am
mm
Dir
 
Spd
km/h
Gust
km/h
Spd
kts
Gust
kts
01/11:30pm 15.2 11.0 12.5 84 1.5 S 26 37 14 20 1019.7 1019.7 0.0
01/11:00pm 15.5 12.3 13.2 86 1.3 S 22 28 12 15 1019.6 1019.6 0.0
01/10:30pm 15.5 11.4 13.7 89 1.0 S 28 41 15 22 1019.1 1019.1 0.0
01/10:00pm 16.4 14.1 14.6 89 1.0 SSW 20 32 11 17 1018.8 1018.8 0.0
01/09:30pm 16.5 14.0 15.2 92 0.8 SSW 22 32 12 17 1018.0 1018.0 0.0
01/09:00pm 17.0 15.6 15.5 91 0.9 WSW 17 22 9 12 1017.4 1017.4 0.0
01/08:30pm 17.1 16.0 15.4 90 1.0 WSW 15 20 8 11 1017.1 1017.1 0.0
01/08:00pm 17.1 16.8 15.4 90 1.0 WSW 11 17 6 9 1016.5 1016.5 0.0
01/07:30pm 17.1 16.5 15.6 91 0.9 SW 13 19 7 10 1016.2 1016.2 0.0
01/07:00pm 17.5 15.8 15.8 90 1.0 SW 19 26 10 14 1015.9 1015.9 0.0
01/06:30pm 18.0 15.8 16.0 88 1.2 SW 22 33 12 18 1015.5 1015.5 0.0
01/06:00pm 18.9 16.3 16.0 83 1.7 SW 24 32 13 17 1014.7 1014.7 0.0
01/05:30pm 20.9 17.0 14.3 66 3.8 SW 28 39 15 21 1013.9 1013.9 0.0
01/05:00pm 23.5 18.2 12.5 50 6.3 WSW 32 41 17 22 1013.3 1013.3 0.0
01/04:30pm 25.9 18.7 9.3 35 9.1 WSW 37 50 20 27 1012.7 1012.7 0.0
01/04:00pm 27.4 18.7 6.2 26 11.1 WSW 41 54 22 29 1012.2 1012.2 0.0
01/03:57pm 27.6 18.9 5.8 25 11.3 W 41 54 22 29 1012.1 1012.1 0.0
01/03:30pm 29.9 21.1 1.4 16 14.0 W 37 52 20 28 1011.8 1011.8 0.0
01/03:17pm 30.3 21.8 0.8 15 14.3 WNW 35 56 19 30 1012.1 1012.1 0.0
01/03:00pm 30.5 22.6 1.0 15 14.4 NW 32 41 17 22 1012.2 1012.2 0.0
01/02:30pm 30.8 22.8 0.2 14 14.8 NW 32 43 17 23 1012.4 1012.4 0.0
01/02:00pm 30.6 22.0 0.1 14 14.7 NW 35 44 19 24 1012.7 1012.7 0.0
01/01:30pm 30.3 20.9 -0.1 14 14.5 NW 39 50 21 27 1013.3 1013.3 0.0
01/01:00pm 30.5 21.1 0.0 14 14.6 NNW 39 50 21 27 1013.6 1013.6 0.0
01/12:30pm 30.1 20.3 -0.3 14 14.5 NNW 41 52 22 28 1014.1 1014.1 0.0
01/12:00pm 29.3 19.8 -0.9 14 14.1 NNW 39 50 21 27 1014.4 1014.4 0.0
01/11:30am 28.2 19.9 0.0 16 13.3 NNW 33 44 18 24 1015.0 1015.0 0.0
01/11:00am 26.7 19.1 0.4 18 12.4 NNW 30 43 16 23 1015.3 1015.3 0.0
01/10:30am 25.3 18.6 1.4 21 11.3 N 26 33 14 18 1015.4 1015.4 0.0
01/10:00am 24.5 18.2 1.4 22 10.9 N 24 32 13 17 1015.7 1015.6 0.0
01/09:30am 23.4 17.6 2.3 25 10.0 N 22 30 12 16 1016.0 1015.9 0.0
01/09:00am 22.6 16.0 2.1 26 9.6 N 26 32 14 17 1015.9 1015.8 0.0
01/08:30am 22.4 16.5 2.0 26 9.5 N 22 32 12 17 1016.0 1015.9 0.0
01/08:00am 21.0 16.1 2.3 29 8.7 N 17 26 9 14 1015.9 1015.8 0.0
01/07:30am 20.0 15.9 2.4 31 8.1 N 13 17 7 9 1016.2 1016.1 0.0
01/07:00am 19.9 15.0 2.3 31 8.1 N 17 20 9 11 1016.0 1015.9 0.0
01/06:30am 20.3 14.9 2.6 31 8.2 N 20 24 11 13 1015.9 1015.8 0.0
01/06:00am 19.6 14.9 3.3 34 7.7 N 17 22 9 12 1015.9 1015.8 0.0
01/05:30am 18.6 14.3 3.3 36 7.1 N 15 19 8 10 1016.0 1015.9 0.0
01/05:00am 18.2 14.3 3.3 37 6.9 N 13 17 7 9 1016.2 1016.1 0.0
01/04:30am 18.7 14.5 3.7 37 7.1 N 15 19 8 10 1016.5 1016.4 0.0
01/04:00am 17.9 14.1 4.1 40 6.5 N 13 15 7 8 1016.7 1016.6 0.0
01/03:30am 17.4 14.6 5.0 44 5.9 N 9 11 5 6 1016.9 1016.8 0.0
01/03:00am 16.9 14.0 4.9 45 5.7 N 9 9 5 5 1017.6 1017.6 0.0
01/02:30am 16.8 13.9 4.5 44 5.8 N 9 13 5 7 1018.0 1018.0 0.0
01/02:00am 17.8 14.6 5.1 43 6.1 NNE 11 13 6 7 1018.3 1018.3 0.0
01/01:30am 15.1 13.6 5.0 51 4.7 NE 2 6 1 3 1018.6 1018.6 0.0
01/01:00am 14.6 12.9 5.9 56 4.2 NE 4 4 2 2 1018.8 1018.8 0.0
01/12:30am 14.9 12.8 5.7 54 4.4 NE 6 7 3 4 1019.2 1019.2 0.0
01/12:00am 16.0 15.2 6.7 54 4.6 CALM 0 4 0 2 1019.4 1019.4 0.0
 
Date/Time
CDT
Temp
°C
App
Temp
°C
Dew
Point
Rel
Hum
%
Delta-T
°C
Wind Press
QNH
hPa
Press
MSL
hPa
Rain
since 9 am
mm
Dir
 
Spd
km/h
Gust
km/h
Spd
kts
Gust
kts
31/11:30pm 16.7 16.1 7.6 55 4.6 CALM 0 2 0 1 1019.5 1019.5 0.0
31/11:00pm 15.6 13.1 4.6 48 5.2 ENE 7 9 4 5 1019.6 1019.6 0.0
31/10:30pm 17.4 15.8 6.3 48 5.4 E 4 7 2 4 1019.7 1019.7 0.0
31/10:00pm 18.7 16.9 8.1 50 5.4 ESE 7 9 4 5 1019.8 1019.8 0.0
31/09:30pm 17.9 16.1 7.0 49 5.4 ESE 6 7 3 4 1020.1 1020.1 0.0
31/09:00pm 17.6 16.0 6.2 47 5.6 SSE 4 4 2 2 1020.2 1020.2 0.0
31/08:30pm 20.7 18.5 7.7 43 6.7 SSE 9 11 5 6 1020.2 1020.2 0.0
31/08:00pm 22.3 19.0 6.5 36 8.1 SSW 13 17 7 9 1020.1 1020.1 0.0
31/07:30pm 24.4 22.7 1.9 23 10.7 CALM 0 0 0 0 1019.7 1019.7 0.0
31/07:00pm 25.9 23.3 1.2 20 11.7 NW 4 4 2 2 1019.5 1019.5 0.0
31/06:30pm 27.8 25.1 0.5 17 12.9 WNW 4 6 2 3 1019.4 1019.4 0.0
31/06:00pm 29.4 26.2 1.0 16 13.7 NW 7 11 4 6 1019.3 1019.3 0.0
31/05:30pm 29.3 27.1 0.9 16 13.7 NNE 2 4 1 2 1019.4 1019.4 0.0
31/05:00pm 30.3 26.9 1.7 16 14.1 NW 9 15 5 8 1019.6 1019.6 0.0
31/04:30pm 30.3 27.3 1.7 16 14.1 N 7 15 4 8 1019.6 1019.6 0.0
31/04:00pm 30.3 28.0 2.5 17 13.9 SSE 4 17 2 9 1019.9 1019.9 0.0
31/03:30pm 29.4 26.3 3.4 19 13.1 NNW 9 17 5 9 1020.4 1020.4 0.0
31/03:00pm 29.1 26.4 3.9 20 12.8 WNW 7 17 4 9 1020.8 1020.8 0.0
31/02:30pm 29.2 26.4 5.3 22 12.4 W 9 17 5 9 1021.1 1021.1 0.0
31/02:00pm 28.2 26.1 5.7 24 11.7 NNE 6 7 3 4 1021.6 1021.6 0.0
31/01:30pm 28.1 25.0 5.6 24 11.7 WNW 11 19 6 10 1022.2 1022.2 0.0
31/01:00pm 27.6 25.7 6.9 27 11.0 NW 6 19 3 10 1022.7 1022.7 0.0
31/12:30pm 26.8 24.0 6.8 28 10.5 N 11 17 6 9 1023.3 1023.3 0.0
31/12:00pm 25.6 22.5 7.2 31 9.7 N 13 20 7 11 1023.7 1023.7 0.0
31/11:30am 24.9 22.4 8.0 34 9.0 N 11 19 6 10 1024.1 1024.1 0.0
31/11:00am 23.8 20.8 7.8 36 8.4 NNE 13 17 7 9 1024.5 1024.5 0.0
31/10:30am 21.9 19.7 9.4 45 6.7 NNE 11 15 6 8 1024.8 1024.8 0.0
31/10:00am 19.9 17.0 9.8 52 5.4 NNE 15 19 8 10 1025.1 1025.1 0.0
31/09:30am 18.2 16.6 10.1 59 4.3 NE 9 15 5 8 1025.4 1025.4 0.0
31/09:00am 15.7 13.6 9.6 67 3.2 NE 11 15 6 8 1025.1 1025.1 0.0
31/08:30am 12.9 11.5 10.8 87 1.1 NE 9 13 5 7 1024.8 1024.8 0.0
31/08:00am 8.9 7.1 8.1 95 0.4 ENE 7 9 4 5 1025.0 1025.0 0.0
31/07:30am 7.0 5.3 6.1 94 0.4 ENE 4 4 2 2 1025.2 1025.2 0.0
31/07:00am 6.8 4.7 5.9 94 0.4 E 6 6 3 3 1025.0 1025.0 0.0
31/06:30am 7.3 5.7 6.4 94 0.4 SSE 4 6 2 3 1024.9 1024.9 0.0
31/06:00am 6.3 4.1 5.3 93 0.4 SSE 6 6 3 3 1024.6 1024.6 0.0
31/05:30am 6.8 5.1 5.7 93 0.5 SSE 4 4 2 2 1024.6 1024.6 0.0
31/05:00am 7.0 5.7 5.9 93 0.5 SSE 2 4 1 2 1024.3 1024.3 0.0
31/04:30am 7.3 6.4 6.2 93 0.5 CALM 0 0 0 0 1024.3 1024.3 0.0
31/04:00am 7.5 6.7 6.3 92 0.5 CALM 0 0 0 0 1024.3 1024.3 0.0
31/03:30am 7.8 7.0 6.4 91 0.6 CALM 0 0 0 0 1024.6 1024.6 0.0
31/03:00am 7.9 7.1 6.5 91 0.6 CALM 0 0 0 0 1024.7 1024.7 0.0
31/02:30am 8.9 8.3 7.5 91 0.7 CALM 0 0 0 0 1024.8 1024.8 0.0
31/02:00am 9.6 9.2 8.2 91 0.7 CALM 0 0 0 0 1024.9 1024.9 0.0
31/01:30am 8.9 7.8 7.0 88 0.9 SSE 2 2 1 1 1025.0 1025.0 0.0
31/01:00am 10.1 9.3 8.0 87 1.0 SSE 2 4 1 2 1025.1 1025.1 0.0
31/12:30am 10.9 9.8 8.5 85 1.2 S 4 6 2 3 1025.2 1025.2 0.0
31/12:00am 11.0 10.1 7.7 80 1.6 S 2 4 1 2 1025.3 1025.3 0.0
 
Date/Time
CDT
Temp
°C
App
Temp
°C
Dew
Point
Rel
Hum
%
Delta-T
°C
Wind Press
QNH
hPa
Press
MSL
hPa
Rain
since 9 am
mm
Dir
 
Spd
km/h
Gust
km/h
Spd
kts
Gust
kts
30/11:30pm 13.2 12.2 10.2 82 1.5 S 6 6 3 3 1025.7 1025.7 0.0
30/11:00pm 14.3 13.6 11.3 82 1.6 S 6 7 3 4 1025.8 1025.8 0.0
30/10:30pm 14.9 14.2 11.3 79 1.9 S 6 6 3 3 1025.8 1025.8 0.0
30/10:00pm 14.9 13.8 10.7 76 2.2 S 7 7 4 4 1025.7 1025.7 0.0
30/09:30pm 15.7 14.7 10.9 73 2.5 S 7 11 4 6 1025.6 1025.6 0.0
30/09:00pm 17.0 15.3 11.1 68 3.2 SSW 11 13 6 7 1025.4 1025.4 0.0
30/08:30pm 17.6 15.7 10.5 63 3.8 SSW 11 13 6 7 1025.2 1025.2 0.0
30/08:00pm 18.7 16.4 10.5 59 4.4 SSW 13 15 7 8 1024.9 1024.9 0.0
30/07:30pm 19.6 17.6 10.0 54 5.1 SW 11 15 6 8 1024.6 1024.6 0.0
30/07:00pm 21.4 19.3 9.9 48 6.2 SSW 11 15 6 8 1024.2 1024.2 0.0
30/06:30pm 22.4 19.2 9.9 45 6.8 SSW 17 22 9 12 1024.1 1024.1 0.0
30/06:00pm 23.3 20.0 9.7 42 7.4 SSW 17 20 9 11 1023.8 1023.8 0.0
30/05:30pm 23.8 20.2 9.8 41 7.6 SSW 19 26 10 14 1023.6 1023.6 0.0
30/05:00pm 24.2 20.4 9.8 40 7.9 SSW 20 26 11 14 1023.4 1023.4 0.0
30/04:30pm 25.0 21.1 9.3 37 8.5 SSW 20 32 11 17 1023.3 1023.3 0.0
30/04:00pm 25.5 22.6 9.7 37 8.7 SSW 15 24 8 13 1023.2 1023.2 0.0
30/03:30pm 25.1 22.5 9.4 37 8.5 S 13 26 7 14 1023.4 1023.4 0.0
30/03:00pm 24.3 21.8 8.3 36 8.5 SW 11 20 6 11 1023.5 1023.5 0.0

Other Formats:

Comma delimited format used in spreadsheet applications
http://www.bom.gov.au/fwo/IDS60801/IDS60801.95815.axf

JavaScript Object Notation format (JSON) in row-major order
http://www.bom.gov.au/fwo/IDS60801/IDS60801.95815.json